Time;durP1;ratioP1;P1;durP2;ratioP2;P2;SDS_P1;SDS_P2;PMS_P1;PMS_P2;Temp;Humidity;BMP_temperature;BMP_pressure;BME280_temperature;BME280_humidity;BME280_pressure;Samples;Min_cycle;Max_cycle;Signal;HPM_P1;HPM_P2
2023/04/02 00:02:21;;;;;;;8.07;2.95;;;;;;;;;;4930970;29;20056;-84
2023/04/02 00:05:06;;;;;;;6.18;2.60;;;;;;;;;;4946037;29;20076;-83
2023/04/02 00:07:43;;;;;;;8.20;2.70;;;;;;;;;;4939933;29;20038;-83
2023/04/02 00:10:28;;;;;;;10.07;2.45;;;;;;;;;;4939764;29;20020;-81
2023/04/02 00:13:00;;;;;;;12.20;2.85;;;;;;;;;;4939170;29;20020;-84
2023/04/02 00:15:32;;;;;;;7.72;3.13;;;;;;;;;;4939480;29;20035;-83
2023/04/02 00:17:59;;;;;;;5.90;3.05;;;;;;;;;;4936405;29;20061;-86
2023/04/02 00:23:18;;;;;;;7.22;2.88;;;;;;;;;;5483996;23;20048;-86
2023/04/02 00:25:47;;;;;;;10.65;2.90;;;;;;;;;;4941589;29;20040;-86
2023/04/02 00:28:23;;;;;;;5.65;2.60;;;;;;;;;;4936588;29;20036;-84
2023/04/02 00:30:55;;;;;;;12.13;3.60;;;;;;;;;;4933305;29;20019;-85
2023/04/02 00:33:23;;;;;;;6.72;3.30;;;;;;;;;;4941179;29;20057;-86
2023/04/02 00:35:59;;;;;;;5.50;2.88;;;;;;;;;;4940919;29;20028;-85
2023/04/02 00:38:31;;;;;;;4.82;2.40;;;;;;;;;;4940439;29;20040;-85
2023/04/02 00:40:58;;;;;;;4.70;2.70;;;;;;;;;;4938559;29;20040;-85
2023/04/02 00:43:30;;;;;;;10.00;2.78;;;;;;;;;;4931914;29;20020;-84
2023/04/02 00:46:00;;;;;;;3.85;2.35;;;;;;;;;;4941651;29;20141;-82
2023/04/02 00:48:32;;;;;;;11.27;3.28;;;;;;;;;;4937070;29;20013;-81
2023/04/02 00:51:17;;;;;;;14.50;3.72;;;;;;;;;;4934101;29;20040;-84
2023/04/02 00:53:52;;;;;;;10.55;3.00;;;;;;;;;;4936391;29;20036;-82
2023/04/02 00:56:26;;;;;;;8.00;2.55;;;;;;;;;;4939982;29;20019;-85
2023/04/02 00:58:57;;;;;;;7.13;2.58;;;;;;;;;;4938583;29;20064;-87
2023/04/02 01:01:26;;;;;;;4.50;2.97;;;;;;;;;;4906968;29;20024;-82
2023/04/02 01:04:00;;;;;;;13.38;2.90;;;;;;;;;;4931111;29;20044;-82
2023/04/02 01:06:30;;;;;;;11.20;3.30;;;;;;;;;;4934799;29;19997;-88
2023/04/02 01:09:02;;;;;;;5.00;2.63;;;;;;;;;;5124492;23;20082;-83
2023/04/02 01:37:43;;;;;;;7.68;2.60;;;;;;;;;;5595978;23;20095;-88
2023/04/02 01:48:48;;;;;;;4.30;2.88;;;;;;;;;;4987619;23;20038;-89
2023/04/02 01:54:05;;;;;;;4.43;2.28;;;;;;;;;;5704048;23;20052;-89
2023/04/02 01:59:57;;;;;;;8.35;3.75;;;;;;;;;;5541899;23;20032;-87
2023/04/02 02:10:46;;;;;;;7.47;2.70;;;;;;;;;;5878918;23;21197;-84
2023/04/02 07:29:44;;;;;;;5.82;2.90;;;;;;;;;;5983924;23;20031;31
2023/04/02 07:50:53;;;;;;;3.25;2.13;;;;;;;;;;5688239;23;20031;31
2023/04/02 08:27:16;;;;;;;12.07;3.22;;;;;;;;;;5375954;23;20076;-88
2023/04/02 08:30:13;;;;;;;8.48;2.80;;;;;;;;;;4924182;29;20083;-91
2023/04/02 09:20:47;;;;;;;3.50;2.47;;;;;;;;;;5483919;23;20055;-89
2023/04/02 09:23:17;;;;;;;4.97;2.65;;;;;;;;;;4940778;29;20026;-89
2023/04/02 09:25:45;;;;;;;5.57;2.35;;;;;;;;;;4933431;29;20045;-85
2023/04/02 09:33:44;;;;;;;3.05;2.15;;;;;;;;;;5622415;23;20043;-82
2023/04/02 09:36:18;;;;;;;3.65;2.47;;;;;;;;;;5502520;23;20019;-85
2023/04/02 10:15:47;;;;;;;2.08;1.80;;;;;;;;;;2750852;23;20231;-80
2023/04/02 10:18:23;;;;;;;3.17;1.92;;;;;;;;;;4934884;29;20028;-82
2023/04/02 10:20:50;;;;;;;2.25;1.80;;;;;;;;;;5215061;23;20367;-82
2023/04/02 10:23:17;;;;;;;2.53;1.70;;;;;;;;;;4937771;29;20034;-85
2023/04/02 10:25:57;;;;;;;1.63;1.50;;;;;;;;;;4937973;29;20054;-88
2023/04/02 10:28:23;;;;;;;2.45;1.67;;;;;;;;;;4928321;29;20027;-87
2023/04/02 10:31:12;;;;;;;1.58;1.48;;;;;;;;;;4933846;29;20032;-84
2023/04/02 10:33:40;;;;;;;1.85;1.50;;;;;;;;;;4935532;29;20030;-88
2023/04/02 10:36:11;;;;;;;1.90;1.50;;;;;;;;;;4949639;29;20035;-85
2023/04/02 10:38:50;;;;;;;1.52;1.42;;;;;;;;;;4949858;29;20052;-89
2023/04/02 10:41:16;;;;;;;2.75;2.17;;;;;;;;;;4945361;29;20051;-81
2023/04/02 10:43:54;;;;;;;2.17;1.70;;;;;;;;;;4942260;29;20489;-87
2023/04/02 10:46:42;;;;;;;1.65;1.55;;;;;;;;;;4938330;29;20087;-83
2023/04/02 10:49:18;;;;;;;1.60;1.50;;;;;;;;;;4933003;29;20032;-85
2023/04/02 10:51:45;;;;;;;1.67;1.58;;;;;;;;;;4907928;29;20029;-87
2023/04/02 10:54:30;;;;;;;2.88;1.58;;;;;;;;;;4925724;29;20540;-82
2023/04/02 10:56:58;;;;;;;1.65;1.55;;;;;;;;;;4927113;29;20047;-80
2023/04/02 10:59:28;;;;;;;2.42;1.75;;;;;;;;;;4938483;29;20032;-89
2023/04/02 11:01:56;;;;;;;1.80;1.70;;;;;;;;;;4921662;29;20040;-89
2023/04/02 11:04:41;;;;;;;1.98;1.70;;;;;;;;;;4924962;29;20058;-89
2023/04/02 11:07:13;;;;;;;1.63;1.53;;;;;;;;;;4926487;29;20028;-88
2023/04/02 11:09:42;;;;;;;3.45;2.17;;;;;;;;;;4927497;29;20307;-85
2023/04/02 11:12:15;;;;;;;2.60;1.70;;;;;;;;;;4929020;29;20035;-89
2023/04/02 11:14:41;;;;;;;1.60;1.50;;;;;;;;;;4921824;29;20039;-88
2023/04/02 11:17:12;;;;;;;2.58;1.77;;;;;;;;;;4926912;29;20044;-83
2023/04/02 11:19:38;;;;;;;2.20;1.60;;;;;;;;;;4922441;29;20030;-86
2023/04/02 11:22:20;;;;;;;2.42;1.60;;;;;;;;;;4923018;29;20520;-83
2023/04/02 11:24:50;;;;;;;1.85;1.50;;;;;;;;;;4925817;29;20020;-87
2023/04/02 11:27:22;;;;;;;2.80;1.60;;;;;;;;;;4940809;29;20047;-80
2023/04/02 11:29:53;;;;;;;1.30;1.30;;;;;;;;;;4920097;29;20083;-81
2023/04/02 11:32:23;;;;;;;5.70;3.78;;;;;;;;;;4923445;29;20062;-86
2023/04/02 11:34:50;;;;;;;2.10;1.40;;;;;;;;;;4925277;29;20095;-89
2023/04/02 11:37:32;;;;;;;3.28;1.80;;;;;;;;;;4934886;29;20031;-81
2023/04/02 11:39:59;;;;;;;3.65;1.88;;;;;;;;;;4937054;29;20020;-90
2023/04/02 11:42:25;;;;;;;2.85;1.80;;;;;;;;;;4934855;29;20071;-87
2023/04/02 11:44:52;;;;;;;2.67;1.85;;;;;;;;;;4918397;29;20046;-82
2023/04/02 11:47:18;;;;;;;2.10;1.70;;;;;;;;;;4913040;29;20039;-87
2023/04/02 11:49:57;;;;;;;2.20;2.00;;;;;;;;;;4918791;29;20048;-90
2023/04/02 11:52:58;;;;;;;2.00;1.77;;;;;;;;;;4922801;29;20019;-86
2023/04/02 11:55:35;;;;;;;2.72;2.08;;;;;;;;;;4826913;29;20021;-87
2023/04/02 11:58:01;;;;;;;5.05;2.58;;;;;;;;;;4926213;29;20035;-87
2023/04/02 12:00:27;;;;;;;4.35;3.10;;;;;;;;;;4940705;29;20034;-84
2023/04/02 12:03:17;;;;;;;3.95;3.45;;;;;;;;;;4924571;29;20513;-89
2023/04/02 12:05:53;;;;;;;3.60;1.85;;;;;;;;;;4939628;29;20094;-88
2023/04/02 12:08:33;;;;;;;5.53;4.20;;;;;;;;;;4924572;29;20112;-82
2023/04/02 12:11:00;;;;;;;3.17;2.28;;;;;;;;;;4937829;29;20050;-86
2023/04/02 12:13:39;;;;;;;1.75;1.65;;;;;;;;;;4921993;29;20028;-88
2023/04/02 12:16:09;;;;;;;2.78;2.40;;;;;;;;;;4941529;29;20544;-84
2023/04/02 12:18:35;;;;;;;2.15;1.90;;;;;;;;;;4934436;29;20050;-85
2023/04/02 12:21:02;;;;;;;1.95;1.80;;;;;;;;;;4936778;29;20032;-89
2023/04/02 12:23:30;;;;;;;2.72;1.90;;;;;;;;;;4917023;29;20132;-83
2023/04/02 12:25:57;;;;;;;4.93;2.00;;;;;;;;;;4923463;29;20063;-80
2023/04/02 12:28:24;;;;;;;1.80;1.70;;;;;;;;;;4918408;29;20573;-87
2023/04/02 12:31:01;;;;;;;2.45;1.90;;;;;;;;;;4926848;29;20021;-89
2023/04/02 12:33:27;;;;;;;2.28;2.08;;;;;;;;;;4934126;29;20894;-87
2023/04/02 12:36:01;;;;;;;2.33;1.88;;;;;;;;;;4919064;29;20038;-84
2023/04/02 12:38:36;;;;;;;2.35;1.95;;;;;;;;;;4927364;29;20058;-90
2023/04/02 12:41:06;;;;;;;2.58;2.30;;;;;;;;;;4935356;29;20540;-88
2023/04/02 12:43:36;;;;;;;4.53;2.75;;;;;;;;;;4936296;29;20039;-88
2023/04/02 12:46:04;;;;;;;4.78;2.40;;;;;;;;;;4941881;29;20042;-88
2023/04/02 12:48:31;;;;;;;3.15;2.20;;;;;;;;;;4923797;29;20087;-87
2023/04/02 12:50:58;;;;;;;3.22;2.30;;;;;;;;;;4939337;29;20031;-84
2023/04/02 12:53:25;;;;;;;3.42;2.80;;;;;;;;;;4939930;29;20028;-89
2023/04/02 12:55:52;;;;;;;6.35;3.10;;;;;;;;;;4922876;29;20028;-86
2023/04/02 12:58:26;;;;;;;6.85;3.80;;;;;;;;;;4922562;29;20039;-81
2023/04/02 13:00:52;;;;;;;6.43;3.58;;;;;;;;;;4938077;29;20031;-89
2023/04/02 13:03:20;;;;;;;5.85;3.47;;;;;;;;;;4923262;29;20038;-88
2023/04/02 13:05:46;;;;;;;8.43;4.00;;;;;;;;;;4939471;29;20031;-86
2023/04/02 13:08:21;;;;;;;9.70;3.92;;;;;;;;;;4928207;29;20275;-82
2023/04/02 13:10:47;;;;;;;;;;;;;;;;;;4921387;29;20028;-81
2023/04/02 13:13:16;;;;;;;8.10;4.40;;;;;;;;;;4920978;29;19910;-88
2023/04/02 13:15:42;;;;;;;6.60;4.20;;;;;;;;;;4937475;29;20031;-84
2023/04/02 13:18:22;;;;;;;6.82;3.90;;;;;;;;;;4917685;29;20505;-86
2023/04/02 13:20:56;;;;;;;3.70;2.80;;;;;;;;;;4930052;29;20493;-87
2023/04/02 13:23:28;;;;;;;4.78;3.35;;;;;;;;;;4915551;29;20063;-87
2023/04/02 13:25:59;;;;;;;4.07;3.10;;;;;;;;;;4931958;29;20102;-86
2023/04/02 13:28:25;;;;;;;5.22;3.75;;;;;;;;;;4928060;29;20030;-85
2023/04/02 13:30:51;;;;;;;5.20;2.95;;;;;;;;;;4933076;29;20048;-83
2023/04/02 13:33:17;;;;;;;5.82;2.90;;;;;;;;;;4935364;29;20043;-85
2023/04/02 13:35:44;;;;;;;8.07;3.05;;;;;;;;;;4930593;29;20043;-85
2023/04/02 13:38:10;;;;;;;6.13;3.40;;;;;;;;;;4932310;29;20032;-84
2023/04/02 13:40:37;;;;;;;5.10;2.83;;;;;;;;;;4930193;29;20119;-85
2023/04/02 13:43:03;;;;;;;3.25;2.95;;;;;;;;;;4888982;29;20028;-84
2023/04/02 13:45:35;;;;;;;4.10;2.33;;;;;;;;;;4918243;29;20120;-87
2023/04/02 13:48:02;;;;;;;4.45;2.40;;;;;;;;;;4913116;29;20044;-85
2023/04/02 13:50:29;;;;;;;5.18;2.42;;;;;;;;;;4916982;29;20043;-87
2023/04/02 13:52:57;;;;;;;4.82;2.85;;;;;;;;;;4919689;29;20032;-80
2023/04/02 13:55:26;;;;;;;8.70;2.83;;;;;;;;;;4933392;29;20054;-86
2023/04/02 13:57:52;;;;;;;3.92;3.03;;;;;;;;;;4915772;29;20043;-88
2023/04/02 14:00:19;;;;;;;4.82;2.58;;;;;;;;;;4919593;29;20021;-84
2023/04/02 14:02:48;;;;;;;4.20;2.80;;;;;;;;;;4922893;29;20070;-85
2023/04/02 14:05:30;;;;;;;5.13;2.70;;;;;;;;;;4919621;29;20039;-81
2023/04/02 14:08:08;;;;;;;3.42;2.28;;;;;;;;;;4939349;29;20038;-84
2023/04/02 14:10:50;;;;;;;7.35;2.97;;;;;;;;;;4913004;29;20158;-86
2023/04/02 14:13:28;;;;;;;3.67;2.55;;;;;;;;;;4923839;29;20055;-87
2023/04/02 14:15:57;;;;;;;4.40;2.40;;;;;;;;;;4932325;29;20044;-87
2023/04/02 14:18:26;;;;;;;4.95;2.75;;;;;;;;;;4915841;29;20032;-86
2023/04/02 14:21:11;;;;;;;4.70;2.35;;;;;;;;;;4930869;29;20536;-86
2023/04/02 14:23:44;;;;;;;3.43;2.50;;;;;;;;;;4909384;29;20047;-86
2023/04/02 14:26:18;;;;;;;3.63;2.40;;;;;;;;;;4919595;29;20048;-88
2023/04/02 14:29:06;;;;;;;4.68;2.40;;;;;;;;;;4936910;29;20035;-84
2023/04/02 14:31:34;;;;;;;2.85;2.10;;;;;;;;;;4882350;29;20050;-85
2023/04/02 14:34:11;;;;;;;3.55;2.38;;;;;;;;;;4918458;29;20012;-87
2023/04/02 14:36:55;;;;;;;5.43;3.05;;;;;;;;;;4910534;29;20031;-90
2023/04/02 14:39:41;;;;;;;3.08;2.10;;;;;;;;;;4924616;29;20086;-85
2023/04/02 14:42:16;;;;;;;3.97;2.92;;;;;;;;;;4910187;29;20031;-85
2023/04/02 14:45:11;;;;;;;5.15;3.67;;;;;;;;;;4924439;29;20036;-84
2023/04/02 14:47:52;;;;;;;2.90;2.05;;;;;;;;;;4900812;29;20064;-84
2023/04/02 14:50:39;;;;;;;3.35;2.28;;;;;;;;;;4934661;29;20031;-87
2023/04/02 14:53:26;;;;;;;5.32;2.40;;;;;;;;;;4934466;29;20016;-86
2023/04/02 14:55:52;;;;;;;3.05;2.13;;;;;;;;;;4922034;29;20434;-85
2023/04/02 14:58:20;;;;;;;3.42;2.22;;;;;;;;;;4937564;29;20060;-85
2023/04/02 15:01:14;;;;;;;3.92;2.38;;;;;;;;;;4903307;29;20051;-88
2023/04/02 15:04:01;;;;;;;6.18;2.33;;;;;;;;;;4934731;29;20083;-88
2023/04/02 15:06:31;;;;;;;3.40;2.20;;;;;;;;;;4939415;29;20039;-86
2023/04/02 15:09:01;;;;;;;2.95;2.10;;;;;;;;;;4923709;29;20044;-86
2023/04/02 15:11:33;;;;;;;3.45;2.20;;;;;;;;;;4919898;29;20098;-85
2023/04/02 15:13:59;;;;;;;5.72;2.75;;;;;;;;;;4923499;29;20027;-87
2023/04/02 15:16:25;;;;;;;3.97;2.50;;;;;;;;;;4926104;29;20124;-84
2023/04/02 15:18:52;;;;;;;2.67;2.20;;;;;;;;;;4920757;29;20190;-90
2023/04/02 15:21:18;;;;;;;2.47;2.00;;;;;;;;;;4916854;29;20058;-89
2023/04/02 15:23:49;;;;;;;3.35;2.03;;;;;;;;;;4938427;29;20064;-87
2023/04/02 15:26:15;;;;;;;3.95;3.05;;;;;;;;;;4938857;29;20059;-87
2023/04/02 15:28:46;;;;;;;2.78;1.98;;;;;;;;;;4940676;29;20074;-87
2023/04/02 15:31:13;;;;;;;3.08;2.08;;;;;;;;;;4921728;29;20074;-86
2023/04/02 15:33:40;;;;;;;3.33;2.20;;;;;;;;;;4923423;29;20758;-87
2023/04/02 15:36:28;;;;;;;5.30;2.42;;;;;;;;;;4928616;29;20090;-82
2023/04/02 15:39:14;;;;;;;4.38;2.20;;;;;;;;;;4935191;29;20004;-85
2023/04/02 15:41:40;;;;;;;;;;;;;;;;;;4926966;29;20040;-87
2023/04/02 15:44:12;;;;;;;3.42;2.53;;;;;;;;;;4927006;29;19914;-85
2023/04/02 15:47:06;;;;;;;3.65;2.53;;;;;;;;;;4923419;29;20011;-84
2023/04/02 15:49:35;;;;;;;2.33;2.13;;;;;;;;;;4930011;29;20099;-83
2023/04/02 15:52:08;;;;;;;3.60;2.03;;;;;;;;;;4939625;29;20059;-86
2023/04/02 15:54:40;;;;;;;5.18;2.95;;;;;;;;;;4942978;29;20050;-83
2023/04/02 15:57:18;;;;;;;3.65;2.67;;;;;;;;;;4932639;29;20016;-83
2023/04/02 16:00:03;;;;;;;6.38;2.70;;;;;;;;;;4930405;29;20403;-85
2023/04/02 16:02:36;;;;;;;5.75;2.63;;;;;;;;;;4931003;29;20503;-88
2023/04/02 16:05:14;;;;;;;8.35;2.50;;;;;;;;;;4932951;29;20064;-87
2023/04/02 16:07:43;;;;;;;2.38;2.17;;;;;;;;;;4925581;29;20055;-90
2023/04/02 16:10:19;;;;;;;6.35;2.53;;;;;;;;;;4924246;29;20457;-81
2023/04/02 16:12:46;;;;;;;5.75;2.47;;;;;;;;;;4915960;29;20031;-88
2023/04/02 16:15:42;;;;;;;5.35;2.40;;;;;;;;;;4925672;29;20100;-82
2023/04/02 16:18:11;;;;;;;4.75;2.15;;;;;;;;;;4923435;29;20065;-88
2023/04/02 16:20:41;;;;;;;2.20;1.95;;;;;;;;;;4943159;29;20054;-87
2023/04/02 16:23:23;;;;;;;3.35;2.33;;;;;;;;;;4943856;29;20465;-89
2023/04/02 16:25:58;;;;;;;5.20;2.15;;;;;;;;;;4939926;29;20066;-83
2023/04/02 16:28:29;;;;;;;3.28;2.63;;;;;;;;;;4937886;29;20062;-85
2023/04/02 16:31:06;;;;;;;2.90;2.55;;;;;;;;;;4941657;29;20055;-82
2023/04/02 16:33:39;;;;;;;4.45;2.70;;;;;;;;;;4935852;29;20110;-89
2023/04/02 16:36:24;;;;;;;5.35;2.85;;;;;;;;;;4922781;29;20500;-85
2023/04/02 16:39:09;;;;;;;3.17;2.35;;;;;;;;;;4943667;29;20044;-86
2023/04/02 16:41:42;;;;;;;4.07;2.55;;;;;;;;;;4929760;29;20130;-82
2023/04/02 16:44:20;;;;;;;3.95;2.60;;;;;;;;;;4942974;29;20047;-85
2023/04/02 16:46:59;;;;;;;9.30;3.47;;;;;;;;;;4926004;29;20016;-89
2023/04/02 16:49:35;;;;;;;4.00;2.58;;;;;;;;;;4940374;29;20031;-86
2023/04/02 16:52:22;;;;;;;2.72;2.40;;;;;;;;;;4942673;29;20020;-84
2023/04/02 16:54:55;;;;;;;3.33;2.88;;;;;;;;;;4921577;29;20040;-83
2023/04/02 16:57:41;;;;;;;4.45;2.83;;;;;;;;;;4940079;29;20038;-80
2023/04/02 17:00:13;;;;;;;7.38;3.33;;;;;;;;;;4906713;29;20028;-78
2023/04/02 17:05:33;;;;;;;5.25;4.10;;;;;;;;;;5240192;23;20041;-83
2023/04/02 17:08:07;;;;;;;2.95;2.58;;;;;;;;;;4919397;29;20024;-79
2023/04/02 17:10:52;;;;;;;4.95;2.83;;;;;;;;;;4927025;29;20049;-82
2023/04/02 17:13:24;;;;;;;5.73;2.90;;;;;;;;;;4919807;29;20075;-85
2023/04/02 17:16:10;;;;;;;7.13;3.67;;;;;;;;;;4918947;29;20044;-82
2023/04/02 17:18:37;;;;;;;8.45;4.18;;;;;;;;;;4918128;29;20056;-79
2023/04/02 17:21:05;;;;;;;12.68;5.38;;;;;;;;;;4919845;29;20033;-80
2023/04/02 17:23:31;;;;;;;6.00;4.03;;;;;;;;;;4921826;29;20025;-81
2023/04/02 17:26:01;;;;;;;7.80;4.40;;;;;;;;;;4923076;29;20028;-79
2023/04/02 17:28:35;;;;;;;7.55;4.30;;;;;;;;;;4918951;29;20048;-78
2023/04/02 17:31:03;;;;;;;8.57;5.55;;;;;;;;;;4901087;29;20032;-79
2023/04/02 17:33:29;;;;;;;9.52;5.65;;;;;;;;;;4919349;29;20044;-85
2023/04/02 17:41:13;;;;;;;10.38;5.35;;;;;;;;;;5187641;23;20238;-84
2023/04/02 17:43:45;;;;;;;9.77;5.28;;;;;;;;;;4923306;29;20040;-82
2023/04/02 17:46:11;;;;;;;4.72;3.22;;;;;;;;;;4926015;29;20028;-83
2023/04/02 19:19:18;;;;;;;6.40;4.20;;;;;;;;;;4922891;23;20245;-81
2023/04/02 19:29:45;;;;;;;7.85;5.30;;;;;;;;;;5508277;23;20055;-80
2023/04/02 20:58:50;;;;;;;7.28;4.38;;;;;;;;;;4679897;23;20223;-78
